Time;durP1;ratioP1;P1;durP2;ratioP2;P2;SDS_P1;SDS_P2;PMS_P1;PMS_P2;Temp;Humidity;BMP_temperature;BMP_pressure;BME280_temperature;BME280_humidity;BME280_pressure;Samples;Min_cycle;Max_cycle;Signal;HPM_P1;HPM_P2
2022/03/14 00:00:38;;;;;;;4.30;3.17;;;;;;;-148.23;100.00;61223.13;4981670;28;20117;-68
2022/03/14 00:03:03;;;;;;;5.72;3.70;;;;;;;-148.23;100.00;61223.13;4982784;28;20101;-68
2022/03/14 00:05:30;;;;;;;4.82;2.85;;;;;;;-148.23;100.00;61223.13;4985201;28;20049;-68
2022/03/14 00:07:56;;;;;;;5.25;3.63;;;;;;;-148.23;100.00;61223.13;4983005;28;20018;-68
2022/03/14 00:10:21;;;;;;;6.65;3.50;;;;;;;-148.23;100.00;61223.13;4981017;28;20046;-68
2022/03/14 00:12:48;;;;;;;5.05;3.40;;;;;;;-148.23;100.00;61223.13;4981605;28;20026;-68
2022/03/14 00:15:15;;;;;;;6.10;3.40;;;;;;;-148.23;100.00;61223.13;4979978;28;20045;-68
2022/03/14 00:17:42;;;;;;;4.25;3.53;;;;;;;-148.23;100.00;61223.13;4979304;28;20101;-69
2022/03/14 00:20:11;;;;;;;6.57;3.80;;;;;;;-148.23;100.00;61223.13;4979120;28;20867;-68
2022/03/14 00:22:37;;;;;;;3.53;2.88;;;;;;;-148.23;100.00;61223.13;4979764;28;20041;-68
2022/03/14 00:25:06;;;;;;;6.28;3.97;;;;;;;-148.23;100.00;61223.13;4983716;28;20057;-68
2022/03/14 00:27:32;;;;;;;7.00;3.72;;;;;;;-148.23;100.00;61223.13;4962950;28;20026;-68
2022/03/14 00:29:57;;;;;;;5.30;3.25;;;;;;;-148.23;100.00;61223.13;4983299;28;20034;-68
2022/03/14 00:32:23;;;;;;;6.45;4.00;;;;;;;-148.23;100.00;61223.13;4964114;28;20038;-68
2022/03/14 00:34:48;;;;;;;6.78;4.45;;;;;;;-148.23;100.00;61223.13;4981388;28;20113;-68
2022/03/14 00:37:14;;;;;;;5.85;4.35;;;;;;;-148.23;100.00;61223.13;4979366;28;20052;-68
2022/03/14 00:39:40;;;;;;;7.15;4.32;;;;;;;-148.23;100.00;61223.13;4981017;28;20113;-68
2022/03/14 00:42:05;;;;;;;8.20;4.13;;;;;;;-148.23;100.00;61223.13;4979590;28;20041;-68
2022/03/14 00:44:32;;;;;;;5.43;3.33;;;;;;;-148.23;100.00;61223.13;4980313;28;20033;-68
2022/03/14 00:46:57;;;;;;;4.60;3.33;;;;;;;-148.23;100.00;61223.13;4979507;28;20107;-68
2022/03/14 00:49:23;;;;;;;5.35;3.70;;;;;;;-148.23;100.00;61223.13;4980274;28;20424;-68
2022/03/14 00:51:48;;;;;;;6.07;4.15;;;;;;;-148.23;100.00;61223.13;4981660;28;20030;-68
2022/03/14 00:54:14;;;;;;;6.53;3.60;;;;;;;-148.23;100.00;61223.13;4985935;28;20030;-68
2022/03/14 00:56:39;;;;;;;5.10;3.70;;;;;;;-148.23;100.00;61223.13;4980255;28;20654;-68
2022/03/14 00:59:04;;;;;;;6.03;3.50;;;;;;;-148.23;100.00;61223.13;4979170;28;20030;-68
2022/03/14 01:01:30;;;;;;;4.05;3.38;;;;;;;-148.23;100.00;61223.13;4982850;28;20045;-68
2022/03/14 01:03:55;;;;;;;5.38;3.63;;;;;;;-148.23;100.00;61223.13;4981354;28;20026;-68
2022/03/14 01:06:21;;;;;;;6.43;4.28;;;;;;;-148.23;100.00;61223.13;4979532;28;20790;-68
2022/03/14 01:08:47;;;;;;;5.95;3.88;;;;;;;-148.23;100.00;61223.13;4979220;28;20034;-68
2022/03/14 01:11:13;;;;;;;6.78;3.85;;;;;;;-148.23;100.00;61223.13;4994642;28;20170;-68
2022/03/14 01:13:38;;;;;;;6.47;4.38;;;;;;;-148.23;100.00;61223.13;4985685;28;20058;-69
2022/03/14 01:16:03;;;;;;;7.60;4.30;;;;;;;-148.23;100.00;61223.13;4988657;28;20055;-68
2022/03/14 01:18:29;;;;;;;9.82;3.40;;;;;;;-148.23;100.00;61223.13;4981668;28;20397;-68
2022/03/14 01:20:55;;;;;;;6.57;4.22;;;;;;;-148.23;100.00;61223.13;4982708;28;20057;-68
2022/03/14 01:23:20;;;;;;;6.00;3.97;;;;;;;-148.23;100.00;61223.13;4977637;28;20026;-68
2022/03/14 01:25:46;;;;;;;6.82;4.15;;;;;;;-148.23;100.00;61223.13;4966808;28;20166;-68
2022/03/14 01:28:12;;;;;;;7.40;4.43;;;;;;;-148.23;100.00;61223.13;4984146;28;20516;-68
2022/03/14 01:30:38;;;;;;;7.50;4.03;;;;;;;-148.23;100.00;61223.13;4983809;28;20030;-68
2022/03/14 01:33:04;;;;;;;6.22;4.20;;;;;;;-148.23;100.00;61223.13;4984226;28;20073;-68
2022/03/14 01:35:29;;;;;;;6.07;4.68;;;;;;;-148.23;100.00;61223.13;4986253;28;20042;-69
2022/03/14 01:37:57;;;;;;;5.10;4.03;;;;;;;-148.23;100.00;61223.13;4977349;28;20034;-68
2022/03/14 01:40:23;;;;;;;6.28;3.83;;;;;;;-148.23;100.00;61223.13;4976974;28;20038;-69
2022/03/14 01:42:48;;;;;;;7.55;3.92;;;;;;;-148.23;100.00;61223.13;4976768;28;20022;-69
2022/03/14 01:45:14;;;;;;;7.32;4.18;;;;;;;-148.23;100.00;61223.13;4983043;28;20026;-68
2022/03/14 01:47:41;;;;;;;7.22;4.85;;;;;;;-148.23;100.00;61223.13;4983914;28;20033;-68
2022/03/14 01:50:07;;;;;;;6.38;4.45;;;;;;;-148.23;100.00;61223.13;4984793;28;20241;-68
2022/03/14 01:52:32;;;;;;;9.82;4.05;;;;;;;-148.23;100.00;61223.13;4992228;28;20033;-68
2022/03/14 01:54:58;;;;;;;6.65;4.55;;;;;;;-148.23;100.00;61223.13;4992591;28;20033;-68
2022/03/14 01:57:23;;;;;;;5.78;4.53;;;;;;;-148.23;100.00;61223.13;4983861;28;20034;-69
2022/03/14 01:59:49;;;;;;;5.20;4.63;;;;;;;-148.23;100.00;61223.13;4972335;28;20026;-68
2022/03/14 02:02:14;;;;;;;7.30;4.80;;;;;;;-148.23;100.00;61223.13;4985785;28;20152;-68
2022/03/14 02:04:40;;;;;;;6.78;4.95;;;;;;;-148.23;100.00;61223.13;4995961;28;20464;-68
2022/03/14 02:07:05;;;;;;;7.40;5.95;;;;;;;-148.23;100.00;61223.13;4981602;28;20414;-68
2022/03/14 02:09:31;;;;;;;6.90;4.55;;;;;;;-148.23;100.00;61223.13;4984738;28;20062;-68
2022/03/14 02:11:56;;;;;;;8.75;4.60;;;;;;;-148.23;100.00;61223.13;4984477;28;20026;-68
2022/03/14 02:14:22;;;;;;;7.10;4.93;;;;;;;-148.23;100.00;61223.13;4989812;28;20037;-68
2022/03/14 02:16:47;;;;;;;7.60;5.50;;;;;;;-148.23;100.00;61223.13;4983343;28;20634;-68
2022/03/14 02:19:13;;;;;;;7.25;4.88;;;;;;;-148.23;100.00;61223.13;4983772;28;20057;-69
2022/03/14 02:21:39;;;;;;;6.75;4.80;;;;;;;-148.23;100.00;61223.13;4985577;28;20133;-68
2022/03/14 02:24:04;;;;;;;5.97;4.10;;;;;;;-148.23;100.00;61223.13;4991902;28;20409;-68
2022/03/14 02:26:29;;;;;;;5.35;3.88;;;;;;;-148.23;100.00;61223.13;4987685;28;20073;-68
2022/03/14 02:28:55;;;;;;;5.15;4.43;;;;;;;-148.23;100.00;61223.13;4995389;28;20030;-68
2022/03/14 02:31:20;;;;;;;5.50;4.40;;;;;;;-148.23;100.00;61223.13;4994952;28;20065;-68
2022/03/14 02:33:46;;;;;;;5.00;3.85;;;;;;;-148.23;100.00;61223.13;4986503;28;20034;-68
2022/03/14 02:36:11;;;;;;;7.03;3.50;;;;;;;-148.23;100.00;61223.13;4983847;28;20396;-68
2022/03/14 02:38:36;;;;;;;7.45;5.03;;;;;;;-148.23;100.00;61223.13;4987371;28;20038;-68
2022/03/14 02:41:02;;;;;;;8.18;4.97;;;;;;;-148.23;100.00;61223.13;4981889;28;20048;-68
2022/03/14 02:43:27;;;;;;;6.32;4.78;;;;;;;-148.23;100.00;61223.13;4984436;28;20096;-68
2022/03/14 02:45:54;;;;;;;7.35;3.65;;;;;;;-148.23;100.00;61223.13;4990812;28;20038;-68
2022/03/14 02:48:21;;;;;;;6.93;3.63;;;;;;;-148.23;100.00;61223.13;4987631;28;20037;-68
2022/03/14 02:50:48;;;;;;;6.45;4.90;;;;;;;-148.23;100.00;61223.13;4983701;28;20076;-68
2022/03/14 02:53:14;;;;;;;7.28;4.60;;;;;;;-148.23;100.00;61223.13;4983628;28;20510;-68
2022/03/14 02:55:39;;;;;;;7.15;4.15;;;;;;;-148.23;100.00;61223.13;4987652;28;20022;-68
2022/03/14 02:58:05;;;;;;;6.38;4.60;;;;;;;-148.23;100.00;61223.13;4979307;28;20046;-68
2022/03/14 03:00:30;;;;;;;4.47;3.53;;;;;;;-148.23;100.00;61223.13;4985227;28;20142;-68
2022/03/14 03:02:56;;;;;;;6.38;4.45;;;;;;;-148.23;100.00;61223.13;4988695;28;20114;-68
2022/03/14 03:05:22;;;;;;;5.93;4.97;;;;;;;-148.23;100.00;61223.13;4989488;28;20064;-68
2022/03/14 03:07:48;;;;;;;6.55;4.47;;;;;;;-148.23;100.00;61223.13;4984634;28;20378;-68
2022/03/14 03:10:23;;;;;;;8.07;4.38;;;;;;;-148.23;100.00;61223.13;4985751;28;20026;-68
2022/03/14 03:12:48;;;;;;;6.82;4.63;;;;;;;-148.23;100.00;61223.13;4984101;28;22093;-68
2022/03/14 03:15:15;;;;;;;7.72;4.65;;;;;;;-148.23;100.00;61223.13;4993095;28;20037;-68
2022/03/14 03:17:41;;;;;;;7.45;4.38;;;;;;;-148.23;100.00;61223.13;4984826;28;20038;-68
2022/03/14 03:20:08;;;;;;;7.68;5.10;;;;;;;-148.23;100.00;61223.13;4985203;28;20144;-68
2022/03/14 03:22:34;;;;;;;6.82;4.82;;;;;;;-148.23;100.00;61223.13;4985173;28;20137;-68
2022/03/14 03:24:59;;;;;;;7.03;3.83;;;;;;;-148.23;100.00;61223.13;4984038;28;20435;-68
2022/03/14 03:27:24;;;;;;;6.57;3.92;;;;;;;-148.23;100.00;61223.13;4988976;28;20033;-67
2022/03/14 03:29:50;;;;;;;7.05;4.57;;;;;;;-148.23;100.00;61223.13;4988276;28;20066;-68
2022/03/14 03:32:15;;;;;;;5.75;4.10;;;;;;;-148.23;100.00;61223.13;4968866;28;20038;-67
2022/03/14 03:34:41;;;;;;;7.32;5.75;;;;;;;-148.23;100.00;61223.13;4993615;28;20065;-69
2022/03/14 03:37:06;;;;;;;8.20;4.07;;;;;;;-148.23;100.00;61223.13;4988319;28;20070;-69
2022/03/14 03:39:32;;;;;;;8.10;4.10;;;;;;;-148.23;100.00;61223.13;4986481;28;20057;-68
2022/03/14 03:41:57;;;;;;;7.43;4.57;;;;;;;-148.23;100.00;61223.13;4987581;28;20473;-68
2022/03/14 03:44:22;;;;;;;10.88;5.63;;;;;;;-148.23;100.00;61223.13;4989484;28;20057;-68
2022/03/14 03:46:48;;;;;;;7.13;5.53;;;;;;;-148.23;100.00;61223.13;4986291;28;20388;-68
2022/03/14 03:49:14;;;;;;;6.70;4.70;;;;;;;-148.23;100.00;61223.13;4988360;28;20696;-68
2022/03/14 03:51:39;;;;;;;7.00;5.20;;;;;;;-148.23;100.00;61223.13;4985598;28;20030;-68
2022/03/14 03:54:05;;;;;;;6.90;5.40;;;;;;;-148.23;100.00;61223.13;4972379;28;20096;-68
2022/03/14 03:56:31;;;;;;;6.63;5.40;;;;;;;-148.23;100.00;61223.13;4988186;28;20038;-68
2022/03/14 03:58:56;;;;;;;5.35;4.32;;;;;;;-148.23;100.00;61223.13;4983767;28;20026;-68
2022/03/14 04:01:23;;;;;;;6.10;4.20;;;;;;;-148.23;100.00;61223.13;4991959;28;20037;-68
2022/03/14 04:03:54;;;;;;;8.45;4.57;;;;;;;-148.23;100.00;61223.13;4994460;28;20033;-68
2022/03/14 04:06:28;;;;;;;6.78;5.85;;;;;;;-148.23;100.00;61223.13;4989325;28;20109;-68
2022/03/14 04:08:55;;;;;;;8.02;5.53;;;;;;;-148.23;100.00;61223.13;4987021;28;20341;-69
2022/03/14 04:11:21;;;;;;;7.60;5.05;;;;;;;-148.23;100.00;61223.13;4970551;28;20662;-68
2022/03/14 04:13:48;;;;;;;6.85;4.97;;;;;;;-148.23;100.00;61223.13;4986901;28;20077;-68
2022/03/14 04:16:16;;;;;;;6.20;4.80;;;;;;;-148.23;100.00;61223.13;5006053;28;20081;-68
2022/03/14 04:18:41;;;;;;;6.47;4.55;;;;;;;-148.23;100.00;61223.13;4986891;28;20042;-68
2022/03/14 04:21:06;;;;;;;4.55;3.65;;;;;;;-148.23;100.00;61223.13;4988785;28;20078;-68
2022/03/14 04:23:32;;;;;;;8.50;5.00;;;;;;;-148.23;100.00;61223.13;4993787;28;20023;-68
2022/03/14 04:25:57;;;;;;;7.43;5.50;;;;;;;-148.23;100.00;61223.13;4993348;28;20073;-68
2022/03/14 04:28:23;;;;;;;7.43;6.25;;;;;;;-148.23;100.00;61223.13;4977267;28;20461;-69
2022/03/14 04:30:48;;;;;;;11.07;5.70;;;;;;;-148.23;100.00;61223.13;4984150;28;20023;-68
2022/03/14 04:33:13;;;;;;;7.80;5.75;;;;;;;-148.23;100.00;61223.13;4985750;28;20074;-69
2022/03/14 04:35:39;;;;;;;8.45;5.28;;;;;;;-148.23;100.00;61223.13;4984093;28;20030;-68
2022/03/14 04:38:07;;;;;;;6.75;4.72;;;;;;;-148.23;100.00;61223.13;4987673;28;20081;-68
2022/03/14 04:40:32;;;;;;;7.80;5.07;;;;;;;-148.23;100.00;61223.13;4970675;28;20056;-69
2022/03/14 04:42:58;;;;;;;8.93;5.63;;;;;;;-148.23;100.00;61223.13;4987682;28;20509;-69
2022/03/14 04:45:24;;;;;;;9.02;5.68;;;;;;;-148.23;100.00;61223.13;4988766;28;20026;-68
2022/03/14 04:47:49;;;;;;;9.65;6.38;;;;;;;-148.23;100.00;61223.13;4988633;28;20041;-69
2022/03/14 04:50:16;;;;;;;10.35;5.22;;;;;;;-148.23;100.00;61223.13;4979623;28;20042;-69
2022/03/14 04:52:41;;;;;;;10.18;5.45;;;;;;;-148.23;100.00;61223.13;4970314;28;20030;-68
2022/03/14 04:55:07;;;;;;;11.27;7.25;;;;;;;-148.23;100.00;61223.13;4982266;28;20034;-68
2022/03/14 04:57:32;;;;;;;11.32;7.78;;;;;;;-148.23;100.00;61223.13;4988546;28;20405;-69
2022/03/14 04:59:58;;;;;;;15.35;7.50;;;;;;;-148.23;100.00;61223.13;4986348;28;20405;-68
2022/03/14 05:02:23;;;;;;;12.32;6.50;;;;;;;-148.23;100.00;61223.13;4984542;28;20038;-68
2022/03/14 05:04:50;;;;;;;12.07;8.82;;;;;;;-148.23;100.00;61223.13;4982823;28;20421;-69
2022/03/14 05:07:15;;;;;;;12.82;7.88;;;;;;;-148.23;100.00;61223.13;4986235;28;20034;-68
2022/03/14 05:09:41;;;;;;;10.57;8.13;;;;;;;-148.23;100.00;61223.13;4989111;28;20045;-68
2022/03/14 05:12:07;;;;;;;11.40;7.95;;;;;;;-148.23;100.00;61223.13;4980460;28;20125;-68
2022/03/14 05:14:34;;;;;;;12.48;8.57;;;;;;;-148.23;100.00;61223.13;4983626;28;20033;-69
2022/03/14 05:16:59;;;;;;;10.98;7.90;;;;;;;-148.23;100.00;61223.13;4969916;28;20444;-68
2022/03/14 05:19:24;;;;;;;14.88;7.47;;;;;;;-148.23;100.00;61223.13;4982307;28;20357;-68
2022/03/14 05:21:49;;;;;;;10.95;7.72;;;;;;;-148.23;100.00;61223.13;4982842;28;20053;-68
2022/03/14 05:24:15;;;;;;;14.32;7.82;;;;;;;-148.23;100.00;61223.13;4983142;28;20077;-68
2022/03/14 05:26:40;;;;;;;11.57;8.45;;;;;;;-148.23;100.00;61223.13;4982654;28;20025;-69
2022/03/14 05:29:05;;;;;;;12.93;8.95;;;;;;;-148.23;100.00;61223.13;4982753;28;20027;-68
2022/03/14 05:31:31;;;;;;;12.27;6.70;;;;;;;-148.23;100.00;61223.13;4967294;28;20034;-68
2022/03/14 05:33:56;;;;;;;17.83;8.95;;;;;;;-148.23;100.00;61223.13;4982154;28;20084;-68
2022/03/14 05:36:22;;;;;;;12.45;7.55;;;;;;;-148.23;100.00;61223.13;4982497;28;20028;-68
2022/03/14 05:38:47;;;;;;;13.45;7.68;;;;;;;-148.23;100.00;61223.13;4983741;28;20042;-68
2022/03/14 05:41:12;;;;;;;17.15;10.48;;;;;;;-148.23;100.00;61223.13;4984844;28;20089;-68
2022/03/14 05:43:38;;;;;;;12.85;8.63;;;;;;;-148.23;100.00;61223.13;4983000;28;20038;-68
2022/03/14 05:46:04;;;;;;;15.90;10.13;;;;;;;-148.23;100.00;61223.13;4983754;28;20858;-68
2022/03/14 05:48:32;;;;;;;16.45;10.05;;;;;;;-148.23;100.00;61223.13;4983075;28;20018;-69
2022/03/14 05:50:57;;;;;;;12.43;9.00;;;;;;;-148.23;100.00;61223.13;4983829;28;20489;-68
2022/03/14 05:53:22;;;;;;;18.20;10.48;;;;;;;-148.23;100.00;61223.13;4980500;28;20038;-68
2022/03/14 05:55:47;;;;;;;15.00;8.30;;;;;;;-148.23;100.00;61223.13;4980156;28;20065;-69
2022/03/14 05:58:13;;;;;;;13.77;9.45;;;;;;;-148.23;100.00;61223.13;4982094;28;20054;-68
2022/03/14 06:00:39;;;;;;;15.38;10.18;;;;;;;-148.23;100.00;61223.13;4979157;28;20036;-68
2022/03/14 06:03:04;;;;;;;14.10;8.68;;;;;;;-148.23;100.00;61223.13;4979455;28;20422;-68
2022/03/14 06:05:29;;;;;;;18.17;10.88;;;;;;;-148.23;100.00;61223.13;4984868;28;20064;-67
2022/03/14 06:07:55;;;;;;;17.10;8.60;;;;;;;-148.23;100.00;61223.13;4981992;28;20847;-69
2022/03/14 06:10:20;;;;;;;15.88;9.40;;;;;;;-148.23;100.00;61223.13;4982782;28;20034;-68
2022/03/14 06:12:45;;;;;;;14.93;10.32;;;;;;;-148.23;100.00;61223.13;4986272;28;20037;-67
2022/03/14 06:15:15;;;;;;;17.17;10.68;;;;;;;-148.23;100.00;61223.13;4983910;28;20034;-69
2022/03/14 06:17:41;;;;;;;19.75;10.48;;;;;;;-148.23;100.00;61223.13;4981813;28;20030;-69
2022/03/14 06:20:11;;;;;;;18.20;9.80;;;;;;;-148.23;100.00;61223.13;4981022;28;20140;-67
2022/03/14 06:22:41;;;;;;;16.27;9.65;;;;;;;-148.23;100.00;61223.13;4979817;28;20108;-67
2022/03/14 06:25:07;;;;;;;23.23;10.98;;;;;;;-148.23;100.00;61223.13;4980561;28;20081;-67
2022/03/14 06:27:32;;;;;;;18.83;9.95;;;;;;;-148.23;100.00;61223.13;4978622;28;20031;-68
2022/03/14 06:29:57;;;;;;;18.50;9.45;;;;;;;-148.23;100.00;61223.13;4976856;28;20037;-67
2022/03/14 06:32:23;;;;;;;17.60;10.02;;;;;;;-148.23;100.00;61223.13;4981960;28;20034;-67
2022/03/14 06:34:48;;;;;;;19.70;9.90;;;;;;;-148.23;100.00;61223.13;4983001;28;20077;-67
2022/03/14 06:37:14;;;;;;;23.20;10.73;;;;;;;-148.23;100.00;61223.13;4984498;28;20112;-67
2022/03/14 06:39:39;;;;;;;17.35;9.68;;;;;;;-148.23;100.00;61223.13;4993081;28;20022;-68
2022/03/14 06:42:09;;;;;;;22.20;10.95;;;;;;;-148.23;100.00;61223.13;4989374;28;20069;-67
2022/03/14 06:44:39;;;;;;;19.98;12.13;;;;;;;-148.23;100.00;61223.13;4984835;28;20030;-67
2022/03/14 06:47:09;;;;;;;23.70;12.18;;;;;;;-148.23;100.00;61223.13;4983442;28;20055;-66
2022/03/14 06:49:36;;;;;;;19.33;10.52;;;;;;;-148.23;100.00;61223.13;4984736;28;20513;-67
2022/03/14 06:52:01;;;;;;;19.00;11.77;;;;;;;-148.23;100.00;61223.13;4972165;28;20038;-67
2022/03/14 06:54:26;;;;;;;20.73;12.88;;;;;;;-148.23;100.00;61223.13;4973744;28;20053;-69
2022/03/14 06:56:52;;;;;;;24.48;11.90;;;;;;;-148.23;100.00;61223.13;4984439;28;20044;-67
2022/03/14 06:59:17;;;;;;;27.40;12.25;;;;;;;-148.23;100.00;61223.13;4981073;28;20037;-67
2022/03/14 07:01:42;;;;;;;26.95;12.77;;;;;;;-148.23;100.00;61223.13;4978979;28;20118;-69
2022/03/14 07:04:08;;;;;;;26.98;13.13;;;;;;;-148.23;100.00;61223.13;4983699;28;20039;-67
2022/03/14 07:06:34;;;;;;;26.55;14.32;;;;;;;-148.23;100.00;61223.13;4988113;28;20132;-67
2022/03/14 07:08:59;;;;;;;23.52;12.57;;;;;;;-148.23;100.00;61223.13;4968855;28;20448;-67
2022/03/14 07:11:25;;;;;;;26.50;12.98;;;;;;;-148.23;100.00;61223.13;4981508;28;20468;-67
2022/03/14 07:13:50;;;;;;;26.35;12.75;;;;;;;-148.23;100.00;61223.13;4985640;28;21539;-67
2022/03/14 07:16:15;;;;;;;27.92;12.38;;;;;;;-148.23;100.00;61223.13;4983777;28;20033;-67
2022/03/14 07:18:40;;;;;;;24.98;15.00;;;;;;;-148.23;100.00;61223.13;4986964;28;20119;-66
2022/03/14 07:21:06;;;;;;;28.25;16.17;;;;;;;-148.23;100.00;61223.13;4990784;28;20038;-68
2022/03/14 07:23:31;;;;;;;25.60;14.82;;;;;;;-148.23;100.00;61223.13;4981942;28;20065;-69
2022/03/14 07:25:56;;;;;;;32.58;14.60;;;;;;;-148.23;100.00;61223.13;4986123;28;20058;-67
2022/03/14 07:28:22;;;;;;;27.45;13.38;;;;;;;-148.23;100.00;61223.13;4968931;28;20030;-67
2022/03/14 07:30:47;;;;;;;29.77;13.95;;;;;;;-148.23;100.00;61223.13;4982864;28;20117;-67
2022/03/14 07:33:13;;;;;;;30.27;16.83;;;;;;;-148.23;100.00;61223.13;4982055;28;20036;-67
2022/03/14 07:35:38;;;;;;;33.20;19.20;;;;;;;-148.23;100.00;61223.13;4965397;28;20034;-67
2022/03/14 07:38:04;;;;;;;29.75;15.05;;;;;;;-148.23;100.00;61223.13;4986017;28;20038;-67
2022/03/14 07:40:30;;;;;;;35.15;18.85;;;;;;;-148.23;100.00;61223.13;4985277;28;20461;-67
2022/03/14 07:42:58;;;;;;;35.45;18.40;;;;;;;-148.23;100.00;61223.13;4979805;28;20073;-67
2022/03/14 07:45:24;;;;;;;38.10;17.70;;;;;;;-148.23;100.00;61223.13;4981874;28;20033;-67
2022/03/14 07:47:49;;;;;;;30.13;17.40;;;;;;;-148.23;100.00;61223.13;4984485;28;20054;-67
2022/03/14 07:50:16;;;;;;;32.65;18.42;;;;;;;-148.23;100.00;61223.13;4982928;28;20034;-67
2022/03/14 07:52:42;;;;;;;44.20;20.17;;;;;;;-148.23;100.00;61223.13;4980478;28;20026;-67
2022/03/14 07:55:08;;;;;;;37.38;20.95;;;;;;;-148.23;100.00;61223.13;4975434;28;20105;-67
2022/03/14 07:57:34;;;;;;;41.08;21.17;;;;;;;-148.23;100.00;61223.13;4986682;28;20045;-68
2022/03/14 08:00:00;;;;;;;31.80;18.08;;;;;;;-148.23;100.00;61223.13;4979699;28;20066;-67
2022/03/14 08:02:25;;;;;;;34.35;17.75;;;;;;;-148.23;100.00;61223.13;4982871;28;20141;-68
2022/03/14 08:04:51;;;;;;;33.40;18.83;;;;;;;-148.23;100.00;61223.13;4986896;28;20472;-67
2022/03/14 08:07:17;;;;;;;33.88;19.63;;;;;;;-148.23;100.00;61223.13;4983917;28;20408;-67
2022/03/14 08:09:42;;;;;;;42.28;21.13;;;;;;;-148.23;100.00;61223.13;4984463;28;20057;-67
2022/03/14 08:12:11;;;;;;;36.63;20.95;;;;;;;-148.23;100.00;61223.13;4981860;28;20045;-67
2022/03/14 08:14:36;;;;;;;32.10;16.13;;;;;;;-148.23;100.00;61223.13;4985601;28;20065;-68
2022/03/14 08:17:02;;;;;;;35.55;18.95;;;;;;;-148.23;100.00;61223.13;4980838;28;20158;-68
2022/03/14 08:19:28;;;;;;;32.35;16.83;;;;;;;-148.23;100.00;61223.13;4963026;28;20026;-67
2022/03/14 08:21:55;;;;;;;33.67;17.85;;;;;;;-148.23;100.00;61223.13;4983695;28;20069;-67
2022/03/14 08:24:20;;;;;;;38.90;19.80;;;;;;;-148.23;100.00;61223.13;4985768;28;20060;-67
2022/03/14 08:26:46;;;;;;;37.05;21.23;;;;;;;-148.23;100.00;61223.13;4984532;28;20457;-67
2022/03/14 08:29:11;;;;;;;45.20;20.70;;;;;;;-148.23;100.00;61223.13;4986713;28;20796;-67
2022/03/14 08:31:37;;;;;;;40.60;22.00;;;;;;;-148.23;100.00;61223.13;4980313;28;20537;-67
2022/03/14 08:34:02;;;;;;;39.88;20.58;;;;;;;-148.23;100.00;61223.13;4985844;28;20040;-67
2022/03/14 08:36:28;;;;;;;34.55;16.70;;;;;;;-148.23;100.00;61223.13;4986549;28;20034;-67
2022/03/14 08:38:54;;;;;;;48.25;21.30;;;;;;;-148.23;100.00;61223.13;4983541;28;20030;-68
2022/03/14 08:41:19;;;;;;;40.63;18.42;;;;;;;-148.23;100.00;61223.13;4982562;28;20062;-67
2022/03/14 08:43:45;;;;;;;37.70;16.83;;;;;;;-148.23;100.00;61223.13;4986132;28;20080;-67
2022/03/14 08:46:11;;;;;;;38.65;19.58;;;;;;;-148.23;100.00;61223.13;4965654;28;20405;-68
2022/03/14 08:48:36;;;;;;;34.88;16.15;;;;;;;-148.23;100.00;61223.13;4975121;28;20027;-67
2022/03/14 08:51:02;;;;;;;44.90;20.25;;;;;;;-148.23;100.00;61223.13;4983130;28;20030;-68
2022/03/14 08:53:27;;;;;;;46.22;21.70;;;;;;;-148.23;100.00;61223.13;4985196;28;20061;-67
2022/03/14 08:55:55;;;;;;;50.72;22.35;;;;;;;-148.23;100.00;61223.13;4985551;28;20460;-67
2022/03/14 08:58:20;;;;;;;40.70;19.17;;;;;;;-148.23;100.00;61223.13;4979673;28;20038;-68
2022/03/14 09:00:46;;;;;;;40.72;20.67;;;;;;;-148.23;100.00;61223.13;4962465;28;20034;-67
2022/03/14 09:03:11;;;;;;;44.15;20.60;;;;;;;-148.23;100.00;61223.13;4976994;28;20030;-67
2022/03/14 09:05:37;;;;;;;41.35;23.10;;;;;;;-148.23;100.00;61223.13;4976485;28;20039;-68
2022/03/14 09:08:03;;;;;;;34.97;17.92;;;;;;;-148.23;100.00;61223.13;4964803;28;20033;-67
2022/03/14 09:10:31;;;;;;;44.35;21.15;;;;;;;-148.23;100.00;61223.13;4976558;28;20062;-67
2022/03/14 09:12:56;;;;;;;36.80;16.20;;;;;;;-148.23;100.00;61223.13;4981869;28;20044;-67
2022/03/14 09:15:22;;;;;;;45.20;21.08;;;;;;;-148.23;100.00;61223.13;4985071;28;20026;-67
2022/03/14 09:17:52;;;;;;;44.42;22.10;;;;;;;-148.23;100.00;61223.13;4980535;28;20408;-68
2022/03/14 09:20:19;;;;;;;35.03;15.77;;;;;;;-148.23;100.00;61223.13;4979395;28;20476;-67
2022/03/14 09:22:45;;;;;;;30.70;13.68;;;;;;;-148.23;100.00;61223.13;4958751;28;20038;-67
2022/03/14 09:25:13;;;;;;;43.83;18.83;;;;;;;-148.23;100.00;61223.13;4980658;28;20034;-67
2022/03/14 09:27:39;;;;;;;41.15;18.75;;;;;;;-148.23;100.00;61223.13;4967195;28;20108;-67
2022/03/14 09:30:05;;;;;;;43.60;21.15;;;;;;;-148.23;100.00;61223.13;4968630;28;20117;-68
2022/03/14 09:32:30;;;;;;;49.70;20.05;;;;;;;-148.23;100.00;61223.13;4981110;28;20033;-67
2022/03/14 09:34:58;;;;;;;39.15;19.40;;;;;;;-148.23;100.00;61223.13;4983610;28;20026;-67
2022/03/14 09:37:23;;;;;;;39.55;20.30;;;;;;;-148.23;100.00;61223.13;4964524;28;20034;-68
2022/03/14 09:39:49;;;;;;;38.80;18.75;;;;;;;-148.23;100.00;61223.13;4977675;28;20026;-67
2022/03/14 09:42:14;;;;;;;40.40;16.00;;;;;;;-148.23;100.00;61223.13;4981498;28;20054;-67
2022/03/14 09:44:44;;;;;;;31.98;18.20;;;;;;;-148.23;100.00;61223.13;4982692;28;20034;-68
2022/03/14 09:47:11;;;;;;;31.08;14.50;;;;;;;-148.23;100.00;61223.13;4983073;28;20037;-67
2022/03/14 09:49:37;;;;;;;36.30;16.75;;;;;;;-148.23;100.00;61223.13;4983720;28;20036;-67
2022/03/14 09:52:02;;;;;;;38.75;17.73;;;;;;;-148.23;100.00;61223.13;4964322;28;20034;-67
2022/03/14 09:54:28;;;;;;;37.95;18.08;;;;;;;-148.23;100.00;61223.13;4983531;28;20420;-67
2022/03/14 09:56:56;;;;;;;39.50;19.40;;;;;;;-148.23;100.00;61223.13;4984778;28;20115;-67
2022/03/14 09:59:21;;;;;;;37.05;16.40;;;;;;;-148.23;100.00;61223.13;4985416;28;20038;-67
2022/03/14 10:01:47;;;;;;;37.38;15.27;;;;;;;-148.23;100.00;61223.13;4977994;28;20034;-67
2022/03/14 10:04:13;;;;;;;42.88;16.45;;;;;;;-148.23;100.00;61223.13;4981503;28;20539;-67
2022/03/14 10:06:39;;;;;;;40.85;16.73;;;;;;;-148.23;100.00;61223.13;4976946;28;20061;-67
2022/03/14 10:09:05;;;;;;;38.55;16.85;;;;;;;-148.23;100.00;61223.13;4993206;28;20015;-67
2022/03/14 10:11:31;;;;;;;35.95;15.73;;;;;;;-148.23;100.00;61223.13;4980282;28;20365;-67
2022/03/14 10:13:56;;;;;;;41.15;20.08;;;;;;;-148.23;100.00;61223.13;4963321;28;20034;-67
2022/03/14 10:16:22;;;;;;;44.45;18.73;;;;;;;-148.23;100.00;61223.13;4980516;28;20486;-68
2022/03/14 10:18:58;;;;;;;47.22;22.92;;;;;;;-148.23;100.00;61223.13;4984262;28;20033;-67
2022/03/14 10:21:35;;;;;;;37.63;19.90;;;;;;;-148.23;100.00;61223.13;4980742;28;20108;-67
2022/03/14 10:24:03;;;;;;;49.42;19.92;;;;;;;-148.23;100.00;61223.13;4980857;28;20030;-67
2022/03/14 10:26:29;;;;;;;44.10;19.77;;;;;;;-148.23;100.00;61223.13;4983147;28;20149;-67
2022/03/14 10:28:56;;;;;;;41.08;16.90;;;;;;;-148.23;100.00;61223.13;4980164;28;20037;-67
2022/03/14 10:31:35;;;;;;;44.25;19.33;;;;;;;-148.23;100.00;61223.13;4984693;28;20034;-67
2022/03/14 10:34:12;;;;;;;46.72;20.75;;;;;;;-148.23;100.00;61223.13;4981086;28;20100;-67
2022/03/14 10:36:52;;;;;;;38.92;20.15;;;;;;;-148.23;100.00;61223.13;4964084;28;20358;-67
2022/03/14 10:39:22;;;;;;;42.75;17.58;;;;;;;-148.23;100.00;61223.13;4982009;28;20753;-67
2022/03/14 10:42:01;;;;;;;44.75;18.67;;;;;;;-148.23;100.00;61223.13;4979737;28;20473;-67
2022/03/14 10:44:26;;;;;;;40.10;18.85;;;;;;;-148.23;100.00;61223.13;5000885;28;20141;-67
2022/03/14 10:46:52;;;;;;;46.05;20.90;;;;;;;-148.23;100.00;61223.13;4980899;28;20064;-67
2022/03/14 10:49:18;;;;;;;39.22;15.40;;;;;;;-148.23;100.00;61223.13;4983322;28;20033;-67
2022/03/14 10:51:52;;;;;;;33.10;16.38;;;;;;;-148.23;100.00;61223.13;4980345;28;20582;-67
2022/03/14 10:54:17;;;;;;;36.80;19.30;;;;;;;-148.23;100.00;61223.13;4983275;28;20081;-67
2022/03/14 10:57:02;;;;;;;36.35;17.10;;;;;;;-148.23;100.00;61223.13;4985208;28;20034;-67